Time;durP1;ratioP1;P1;durP2;ratioP2;P2;SDS_P1;SDS_P2;PMS_P1;PMS_P2;Temp;Humidity;BMP_temperature;BMP_pressure;BME280_temperature;BME280_humidity;BME280_pressure;Samples;Min_cycle;Max_cycle;Signal;HPM_P1;HPM_P2
2022/10/03 00:02:19;;;;;;;4.72;1.33;;;;;;;;;;5036053;28;20029;-61
2022/10/03 00:04:51;;;;;;;5.32;1.20;;;;;;;;;;5035684;28;20500;-61
2022/10/03 00:07:18;;;;;;;6.07;0.98;;;;;;;;;;5036018;28;20126;-60
2022/10/03 00:09:50;;;;;;;7.05;1.33;;;;;;;;;;5035206;28;20057;-60
2022/10/03 00:12:19;;;;;;;4.97;0.95;;;;;;;;;;5035918;28;20107;-60
2022/10/03 00:14:57;;;;;;;5.35;1.00;;;;;;;;;;5035472;28;20035;-61
2022/10/03 00:17:41;;;;;;;1.52;0.80;;;;;;;;;;5035744;28;20029;-61
2022/10/03 00:20:19;;;;;;;5.75;0.80;;;;;;;;;;5034779;28;20033;-61
2022/10/03 00:22:54;;;;;;;5.00;1.20;;;;;;;;;;5034540;28;20436;-61
2022/10/03 00:25:20;;;;;;;6.55;1.00;;;;;;;;;;5035380;28;20405;-61
2022/10/03 00:28:06;;;;;;;5.18;0.80;;;;;;;;;;5035449;28;20389;-60
2022/10/03 00:30:44;;;;;;;6.85;0.85;;;;;;;;;;5035194;28;20026;-61
2022/10/03 00:33:13;;;;;;;4.90;1.00;;;;;;;;;;5035302;28;20091;-60
2022/10/03 00:35:58;;;;;;;5.28;1.17;;;;;;;;;;5035360;28;20106;-61
2022/10/03 00:38:30;;;;;;;4.63;1.30;;;;;;;;;;5035046;28;20018;-61
2022/10/03 00:40:59;;;;;;;8.17;0.93;;;;;;;;;;5035320;28;20052;-60
2022/10/03 00:43:31;;;;;;;3.88;1.27;;;;;;;;;;5035397;28;20271;-60
2022/10/03 00:46:11;;;;;;;2.43;0.60;;;;;;;;;;5035178;28;20123;-61
2022/10/03 00:48:56;;;;;;;6.38;1.13;;;;;;;;;;5034928;28;20025;-61
2022/10/03 00:51:25;;;;;;;5.50;1.17;;;;;;;;;;5034745;28;20436;-61
2022/10/03 00:53:51;;;;;;;5.30;1.17;;;;;;;;;;5034782;28;20473;-61
2022/10/03 00:56:23;;;;;;;10.23;1.80;;;;;;;;;;5035012;28;20029;-61
2022/10/03 00:59:08;;;;;;;8.37;1.60;;;;;;;;;;5034736;28;20122;-61
2022/10/03 01:01:42;;;;;;;6.13;1.95;;;;;;;;;;5034767;28;20079;-61
2022/10/03 01:04:27;;;;;;;3.42;1.23;;;;;;;;;;5035052;28;20489;-61
2022/10/03 01:07:02;;;;;;;2.90;1.30;;;;;;;;;;5034377;28;20473;-61
2022/10/03 01:09:47;;;;;;;5.25;1.33;;;;;;;;;;5034535;28;20084;-61
2022/10/03 01:12:22;;;;;;;6.13;1.90;;;;;;;;;;5034817;28;20033;-60
2022/10/03 01:14:51;;;;;;;3.65;1.42;;;;;;;;;;5034380;28;20466;-61
2022/10/03 01:17:23;;;;;;;5.22;1.10;;;;;;;;;;5034486;28;20021;-61
2022/10/03 01:19:49;;;;;;;6.13;1.27;;;;;;;;;;5034524;28;20032;-61
2022/10/03 01:22:36;;;;;;;4.60;1.15;;;;;;;;;;5033969;28;20036;-61
2022/10/03 01:25:05;;;;;;;7.28;1.13;;;;;;;;;;5032258;28;20508;-61
2022/10/03 01:30:37;;;;;;;9.18;1.55;;;;;;;;;;5032004;28;20492;-61
2022/10/03 01:33:03;;;;;;;;;;;;;;;;;;5032415;28;20038;-60
2022/10/03 01:35:39;;;;;;;6.93;1.45;;;;;;;;;;5031798;28;19913;-61
2022/10/03 01:38:18;;;;;;;10.30;1.63;;;;;;;;;;5032023;28;20057;-60
2022/10/03 01:40:53;;;;;;;3.15;1.30;;;;;;;;;;5031803;28;20037;-62
2022/10/03 01:43:23;;;;;;;7.78;1.80;;;;;;;;;;5031784;28;20054;-63
2022/10/03 01:46:08;;;;;;;10.95;2.22;;;;;;;;;;5031300;28;20037;-63
2022/10/03 01:48:44;;;;;;;8.55;1.92;;;;;;;;;;5031745;28;20050;-63
2022/10/03 01:51:33;;;;;;;6.65;1.50;;;;;;;;;;5031424;28;20400;-63
2022/10/03 01:53:59;;;;;;;5.85;1.50;;;;;;;;;;5031200;28;20040;-63
2022/10/03 01:56:31;;;;;;;5.78;1.55;;;;;;;;;;5031693;28;20033;-63
2022/10/03 01:59:02;;;;;;;11.80;1.73;;;;;;;;;;5031571;28;20441;-63
2022/10/03 02:01:47;;;;;;;7.65;1.73;;;;;;;;;;5031278;28;20040;-63
2022/10/03 02:04:13;;;;;;;7.13;1.38;;;;;;;;;;5033202;28;20544;-63
2022/10/03 02:06:48;;;;;;;6.72;1.40;;;;;;;;;;5033578;28;20482;-63
2022/10/03 02:09:24;;;;;;;6.72;1.60;;;;;;;;;;5032991;28;20046;-63
2022/10/03 02:11:50;;;;;;;6.80;1.20;;;;;;;;;;5033260;28;20060;-63
2022/10/03 02:14:29;;;;;;;4.25;2.03;;;;;;;;;;5033554;28;20037;-63
2022/10/03 02:17:01;;;;;;;7.65;1.75;;;;;;;;;;5033362;28;20032;-63
2022/10/03 02:19:35;;;;;;;4.03;1.30;;;;;;;;;;5030993;28;20384;-63
2022/10/03 02:22:01;;;;;;;7.18;1.40;;;;;;;;;;5026100;28;20442;-63
2022/10/03 02:24:37;;;;;;;5.20;1.02;;;;;;;;;;5033069;28;20037;-63
2022/10/03 02:27:22;;;;;;;3.72;1.00;;;;;;;;;;5013336;28;20038;-63
2022/10/03 02:30:01;;;;;;;4.97;1.20;;;;;;;;;;5032177;28;20033;-63
2022/10/03 02:32:46;;;;;;;5.45;1.25;;;;;;;;;;5033182;28;20488;-63
2022/10/03 02:35:31;;;;;;;8.25;1.58;;;;;;;;;;5033186;28;20559;-63
2022/10/03 02:37:57;;;;;;;2.67;1.15;;;;;;;;;;5033022;28;20457;-63
2022/10/03 02:40:38;;;;;;;4.90;1.20;;;;;;;;;;5033143;28;20029;-63
2022/10/03 02:43:23;;;;;;;6.05;1.27;;;;;;;;;;5032892;28;20030;-63
2022/10/03 02:45:52;;;;;;;3.53;1.48;;;;;;;;;;5032799;28;20021;-63
2022/10/03 02:48:24;;;;;;;4.60;1.25;;;;;;;;;;5032593;28;20039;-63
2022/10/03 02:50:50;;;;;;;7.05;1.10;;;;;;;;;;5031737;28;20532;-63
2022/10/03 02:53:25;;;;;;;10.20;1.40;;;;;;;;;;5033035;28;20484;-63
2022/10/03 02:56:03;;;;;;;4.68;1.30;;;;;;;;;;5032464;28;20056;-63
2022/10/03 02:58:32;;;;;;;6.70;1.88;;;;;;;;;;5032752;28;20044;-63
2022/10/03 03:01:02;;;;;;;6.38;1.55;;;;;;;;;;5032804;28;20028;-63
2022/10/03 03:03:34;;;;;;;5.00;1.60;;;;;;;;;;5032425;28;20029;-63
2022/10/03 03:06:15;;;;;;;8.47;1.30;;;;;;;;;;5032724;28;20040;-63
2022/10/03 03:09:00;;;;;;;4.60;1.40;;;;;;;;;;5032502;28;20041;-63
2022/10/03 03:11:49;;;;;;;6.28;1.98;;;;;;;;;;5032957;28;20057;-63
2022/10/03 03:14:15;;;;;;;3.95;1.05;;;;;;;;;;5031445;28;20390;-63
2022/10/03 03:16:49;;;;;;;5.32;1.42;;;;;;;;;;5032223;28;20428;-63
2022/10/03 03:19:27;;;;;;;7.78;1.23;;;;;;;;;;5032706;28;20083;-63
2022/10/03 03:22:16;;;;;;;6.20;1.20;;;;;;;;;;5035137;28;20061;-63
2022/10/03 03:24:51;;;;;;;3.05;1.15;;;;;;;;;;5036754;28;20412;-62
2022/10/03 03:27:23;;;;;;;6.32;1.23;;;;;;;;;;5036738;28;20084;-62
2022/10/03 03:29:58;;;;;;;9.90;2.47;;;;;;;;;;5036606;28;20033;-62
2022/10/03 03:32:26;;;;;;;3.20;1.25;;;;;;;;;;5036246;28;20147;-62
2022/10/03 03:35:03;;;;;;;4.05;1.25;;;;;;;;;;5036245;28;20079;-62
2022/10/03 03:37:47;;;;;;;6.60;1.33;;;;;;;;;;5036741;28;20034;-62
2022/10/03 03:40:32;;;;;;;7.20;1.88;;;;;;;;;;5036545;28;20029;-62
2022/10/03 03:42:59;;;;;;;7.47;1.70;;;;;;;;;;5036189;28;20032;-63
2022/10/03 03:45:28;;;;;;;5.20;1.73;;;;;;;;;;5036123;28;20045;-63
2022/10/03 03:48:11;;;;;;;4.53;1.30;;;;;;;;;;5036130;28;20421;-63
2022/10/03 03:50:37;;;;;;;;;;;;;;;;;;5036594;28;20026;-63
2022/10/03 03:53:09;;;;;;;5.43;1.83;;;;;;;;;;5034517;28;20295;-63
2022/10/03 03:55:47;;;;;;;5.22;1.33;;;;;;;;;;5036278;28;20076;-63
2022/10/03 03:58:38;;;;;;;6.40;1.50;;;;;;;;;;5036102;28;20120;-63
2022/10/03 04:01:12;;;;;;;4.03;1.42;;;;;;;;;;5033583;28;20100;-63
2022/10/03 04:03:43;;;;;;;9.30;1.65;;;;;;;;;;5035441;28;20037;-63
2022/10/03 04:06:18;;;;;;;6.88;1.48;;;;;;;;;;5034875;28;20041;-63
2022/10/03 04:09:08;;;;;;;12.25;2.78;;;;;;;;;;5022371;28;20053;-63
2022/10/03 04:11:48;;;;;;;9.25;2.60;;;;;;;;;;5035463;28;20030;-63
2022/10/03 04:14:33;;;;;;;9.48;2.00;;;;;;;;;;5034931;28;20068;-63
2022/10/03 04:19:53;;;;;;;8.57;3.03;;;;;;;;;;5034030;28;20516;-63
2022/10/03 04:22:22;;;;;;;11.13;3.45;;;;;;;;;;5032708;28;20048;-63
2022/10/03 04:25:07;;;;;;;11.15;3.45;;;;;;;;;;5032807;28;20038;-63
2022/10/03 04:27:42;;;;;;;6.75;3.00;;;;;;;;;;5027403;28;20018;-63
2022/10/03 04:30:47;;;;;;;9.25;3.45;;;;;;;;;;5032991;28;20029;-63
2022/10/03 04:33:16;;;;;;;13.35;3.08;;;;;;;;;;5030162;28;20040;-63
2022/10/03 04:35:42;;;;;;;4.93;1.75;;;;;;;;;;5029628;28;20040;-63
2022/10/03 04:38:27;;;;;;;11.70;2.95;;;;;;;;;;5031308;28;20390;-63
2022/10/03 04:41:07;;;;;;;7.03;2.38;;;;;;;;;;5032298;28;20045;-63
2022/10/03 04:43:41;;;;;;;6.45;2.75;;;;;;;;;;5031016;28;20569;-63
2022/10/03 04:46:24;;;;;;;6.80;2.75;;;;;;;;;;5030502;28;20033;-63
2022/10/03 04:49:05;;;;;;;3.70;1.93;;;;;;;;;;5032091;28;20049;-63
2022/10/03 04:51:31;;;;;;;10.05;2.90;;;;;;;;;;5032143;28;20494;-63
2022/10/03 04:54:01;;;;;;;9.75;2.70;;;;;;;;;;5032403;28;20112;-63
2022/10/03 04:56:39;;;;;;;6.25;2.63;;;;;;;;;;5012798;28;20026;-63
2022/10/03 04:59:08;;;;;;;7.47;3.13;;;;;;;;;;5012634;28;20172;-63
2022/10/03 05:01:39;;;;;;;9.60;3.22;;;;;;;;;;5014123;28;20034;-63
2022/10/03 05:04:19;;;;;;;10.93;3.47;;;;;;;;;;5022748;28;20049;-63
2022/10/03 05:07:06;;;;;;;5.35;2.85;;;;;;;;;;5015323;28;20025;-63
2022/10/03 05:09:51;;;;;;;11.68;4.28;;;;;;;;;;5031330;28;20053;-63
2022/10/03 05:12:21;;;;;;;11.27;4.22;;;;;;;;;;5037547;28;20041;-63
2022/10/03 05:15:06;;;;;;;11.38;3.53;;;;;;;;;;5040055;28;20034;-63
2022/10/03 05:17:36;;;;;;;10.63;3.70;;;;;;;;;;5035367;28;20030;-63
2022/10/03 05:20:20;;;;;;;9.77;4.40;;;;;;;;;;5044347;28;20117;-63
2022/10/03 05:22:56;;;;;;;10.43;5.22;;;;;;;;;;5033041;28;20477;-63
2022/10/03 05:25:28;;;;;;;9.95;4.88;;;;;;;;;;5034882;28;20033;-63
2022/10/03 05:28:01;;;;;;;12.82;5.60;;;;;;;;;;5033476;28;20021;-63
2022/10/03 05:30:34;;;;;;;8.50;4.20;;;;;;;;;;5033821;28;20033;-63
2022/10/03 05:33:06;;;;;;;8.13;3.70;;;;;;;;;;5023214;28;20037;-64
2022/10/03 05:35:42;;;;;;;12.68;3.67;;;;;;;;;;5030090;28;20613;-63
2022/10/03 05:38:08;;;;;;;9.57;3.95;;;;;;;;;;5028112;28;20045;-63
2022/10/03 05:40:36;;;;;;;6.63;3.00;;;;;;;;;;5028269;28;20049;-63
2022/10/03 05:43:02;;;;;;;9.38;3.70;;;;;;;;;;5031921;28;20021;-63
2022/10/03 05:45:31;;;;;;;8.70;4.10;;;;;;;;;;5029223;28;20120;-63
2022/10/03 05:47:58;;;;;;;10.70;4.38;;;;;;;;;;5031656;28;20029;-63
2022/10/03 05:50:34;;;;;;;7.28;4.50;;;;;;;;;;5029085;28;20029;-63
2022/10/03 05:53:01;;;;;;;14.10;5.55;;;;;;;;;;5031287;28;20486;-63
2022/10/03 05:55:35;;;;;;;9.40;5.03;;;;;;;;;;5031017;28;20033;-63
2022/10/03 05:58:01;;;;;;;13.23;6.50;;;;;;;;;;5032795;28;20026;-63
2022/10/03 06:00:47;;;;;;;9.38;5.63;;;;;;;;;;5032299;28;20022;-63
2022/10/03 06:03:23;;;;;;;12.07;6.97;;;;;;;;;;5032666;28;20101;-63
2022/10/03 06:05:55;;;;;;;21.05;8.57;;;;;;;;;;5029316;28;20033;-63
2022/10/03 06:08:54;;;;;;;15.85;7.22;;;;;;;;;;5032355;28;20128;-63
2022/10/03 06:11:30;;;;;;;15.88;7.90;;;;;;;;;;5011369;28;20041;-63
2022/10/03 06:14:30;;;;;;;17.45;7.90;;;;;;;;;;5013164;28;20038;-63
2022/10/03 06:17:03;;;;;;;19.27;8.50;;;;;;;;;;5027413;28;20421;-63
2022/10/03 06:19:29;;;;;;;;;;;;;;;;;;5030611;28;20017;-63
2022/10/03 06:21:55;;;;;;;16.00;8.15;;;;;;;;;;5031339;28;20427;-64
2022/10/03 06:24:34;;;;;;;20.65;9.43;;;;;;;;;;5028028;28;20034;-63
2022/10/03 06:27:00;;;;;;;19.08;8.93;;;;;;;;;;5032038;28;20028;-67
2022/10/03 06:29:44;;;;;;;30.10;9.80;;;;;;;;;;5029475;28;20117;-63
2022/10/03 06:32:29;;;;;;;29.92;9.52;;;;;;;;;;5018387;28;20052;-63
2022/10/03 06:35:27;;;;;;;22.90;9.75;;;;;;;;;;5027573;28;20370;-63
2022/10/03 06:37:56;;;;;;;18.63;9.10;;;;;;;;;;5024369;28;21225;-63
2022/10/03 06:40:22;;;;;;;24.35;8.63;;;;;;;;;;5028664;28;20485;-63
2022/10/03 06:43:05;;;;;;;23.40;9.43;;;;;;;;;;5030870;28;20044;-63
2022/10/03 06:45:31;;;;;;;19.15;9.23;;;;;;;;;;5029534;28;20025;-63
2022/10/03 06:48:05;;;;;;;20.70;9.68;;;;;;;;;;5030785;28;20033;-63
2022/10/03 06:50:39;;;;;;;17.83;9.43;;;;;;;;;;5030206;28;20045;-63
2022/10/03 06:53:20;;;;;;;21.30;10.05;;;;;;;;;;5031819;28;20111;-63
2022/10/03 06:55:53;;;;;;;16.30;10.48;;;;;;;;;;5030278;28;20492;-63
2022/10/03 06:58:48;;;;;;;17.90;10.27;;;;;;;;;;5031598;28;20018;-63
2022/10/03 07:01:28;;;;;;;27.27;10.25;;;;;;;;;;5031250;28;20095;-63
2022/10/03 07:04:03;;;;;;;16.85;10.18;;;;;;;;;;5029551;28;20513;-63
2022/10/03 07:06:30;;;;;;;21.65;11.35;;;;;;;;;;5024341;28;20067;-63
2022/10/03 07:09:02;;;;;;;18.88;10.77;;;;;;;;;;5029904;28;20110;-63
2022/10/03 07:11:47;;;;;;;16.95;10.73;;;;;;;;;;5026823;28;20123;-63
2022/10/03 07:14:29;;;;;;;22.48;10.52;;;;;;;;;;5031938;28;20040;-63
2022/10/03 07:17:14;;;;;;;15.65;10.45;;;;;;;;;;5030939;28;20021;-63
2022/10/03 07:20:01;;;;;;;19.65;11.02;;;;;;;;;;5030223;28;20448;-63
2022/10/03 07:22:30;;;;;;;16.48;11.10;;;;;;;;;;5031179;28;20025;-63
2022/10/03 07:25:17;;;;;;;19.80;11.60;;;;;;;;;;5031853;28;20029;-63
2022/10/03 07:27:46;;;;;;;19.63;11.05;;;;;;;;;;5029492;28;20481;-63
2022/10/03 07:30:18;;;;;;;22.45;11.90;;;;;;;;;;5026976;28;20059;-63
2022/10/03 07:33:03;;;;;;;18.33;11.57;;;;;;;;;;5030991;28;20037;-63
2022/10/03 07:38:59;;;;;;;19.00;10.65;;;;;;;;;;5030119;28;20076;-63
2022/10/03 07:41:43;;;;;;;21.88;10.38;;;;;;;;;;5030562;28;20057;-63
2022/10/03 07:44:18;;;;;;;22.38;10.55;;;;;;;;;;5034030;28;20432;-63
2022/10/03 07:46:50;;;;;;;19.33;10.38;;;;;;;;;;5031055;28;20037;-63
2022/10/03 07:49:25;;;;;;;19.50;10.93;;;;;;;;;;5028183;28;20087;-63
2022/10/03 07:52:07;;;;;;;21.58;10.90;;;;;;;;;;5029946;28;20049;-63
2022/10/03 07:54:48;;;;;;;15.32;9.55;;;;;;;;;;5026290;28;20037;-63
2022/10/03 07:57:20;;;;;;;14.18;9.70;;;;;;;;;;5035656;28;20037;-63
2022/10/03 07:59:59;;;;;;;13.53;9.67;;;;;;;;;;5035727;28;20062;-63
2022/10/03 08:02:40;;;;;;;16.35;10.27;;;;;;;;;;5047122;28;20260;-63
2022/10/03 08:05:13;;;;;;;15.82;9.70;;;;;;;;;;5033456;28;20116;-63
2022/10/03 08:07:45;;;;;;;17.92;9.48;;;;;;;;;;5032915;28;20038;-63
2022/10/03 08:10:11;;;;;;;13.90;8.85;;;;;;;;;;5036142;28;20057;-63
2022/10/03 08:13:02;;;;;;;12.98;9.02;;;;;;;;;;5044361;28;20038;-63
2022/10/03 08:15:54;;;;;;;14.00;9.32;;;;;;;;;;5037993;28;20456;-63
2022/10/03 08:18:41;;;;;;;19.23;9.68;;;;;;;;;;5037819;28;20033;-63
2022/10/03 08:21:14;;;;;;;17.25;8.75;;;;;;;;;;5033202;28;20029;-63
2022/10/03 08:24:12;;;;;;;20.20;9.15;;;;;;;;;;5031305;28;20056;-63
2022/10/03 08:26:42;;;;;;;21.60;8.02;;;;;;;;;;5048766;28;20072;-63
2022/10/03 08:29:20;;;;;;;13.00;7.80;;;;;;;;;;5055488;28;20037;-63
2022/10/03 08:31:55;;;;;;;13.63;7.72;;;;;;;;;;5056114;28;20041;-63
2022/10/03 08:34:41;;;;;;;12.05;6.20;;;;;;;;;;5045375;28;20036;-63
2022/10/03 08:37:07;;;;;;;13.75;6.35;;;;;;;;;;5049528;28;20114;-63
2022/10/03 08:39:51;;;;;;;13.23;5.20;;;;;;;;;;5050704;28;20033;-63
2022/10/03 08:42:36;;;;;;;9.50;4.50;;;;;;;;;;5054724;28;20473;-63
2022/10/03 08:45:12;;;;;;;7.90;4.05;;;;;;;;;;5050708;28;20067;-63
2022/10/03 08:47:41;;;;;;;10.00;3.17;;;;;;;;;;5051221;28;20044;-63
2022/10/03 08:50:26;;;;;;;7.32;3.28;;;;;;;;;;5049815;28;20534;-63
2022/10/03 08:52:55;;;;;;;10.15;3.13;;;;;;;;;;5050457;28;20500;-63
2022/10/03 08:55:41;;;;;;;5.55;2.67;;;;;;;;;;5051210;28;20086;-63
2022/10/03 08:58:40;;;;;;;9.20;2.58;;;;;;;;;;5049493;28;20118;-63
2022/10/03 09:01:06;;;;;;;4.95;2.10;;;;;;;;;;5017223;28;20065;-63
2022/10/03 09:03:46;;;;;;;7.05;3.17;;;;;;;;;;5029021;28;20026;-63
2022/10/03 09:06:23;;;;;;;5.40;2.67;;;;;;;;;;5032811;28;20082;-64
2022/10/03 09:09:08;;;;;;;7.45;2.35;;;;;;;;;;5032691;28;20052;-64
2022/10/03 09:11:34;;;;;;;9.48;2.60;;;;;;;;;;5033277;28;20037;-64
2022/10/03 09:14:06;;;;;;;4.93;1.48;;;;;;;;;;5033535;28;20042;-64
2022/10/03 09:16:41;;;;;;;7.87;2.23;;;;;;;;;;5032749;28;20485;-65
2022/10/03 09:19:10;;;;;;;4.40;2.15;;;;;;;;;;5029998;28;20264;-64
2022/10/03 09:21:39;;;;;;;9.30;2.28;;;;;;;;;;5033913;28;20024;-64
2022/10/03 09:24:14;;;;;;;6.10;1.65;;;;;;;;;;5032721;28;20029;-64
2022/10/03 09:26:52;;;;;;;4.38;2.33;;;;;;;;;;5043632;28;20116;-64
2022/10/03 09:29:28;;;;;;;4.00;1.92;;;;;;;;;;5032267;28;20033;-63
2022/10/03 09:32:06;;;;;;;4.47;2.17;;;;;;;;;;5028662;28;20071;-63
2022/10/03 09:34:32;;;;;;;8.05;2.13;;;;;;;;;;5044196;28;20034;-63
2022/10/03 09:37:14;;;;;;;5.65;2.17;;;;;;;;;;5034189;28;20096;-63
2022/10/03 09:39:40;;;;;;;5.13;2.10;;;;;;;;;;5032757;28;20021;-63
2022/10/03 09:42:25;;;;;;;6.93;2.50;;;;;;;;;;5044328;28;20033;-63
2022/10/03 09:45:14;;;;;;;4.82;2.50;;;;;;;;;;5035656;28;20037;-63
2022/10/03 09:47:49;;;;;;;7.32;2.50;;;;;;;;;;5035116;28;20044;-63
2022/10/03 09:50:21;;;;;;;5.72;2.63;;;;;;;;;;5034457;28;20397;-63
2022/10/03 09:52:50;;;;;;;6.85;2.33;;;;;;;;;;5038046;28;20036;-63
2022/10/03 09:55:28;;;;;;;6.05;2.10;;;;;;;;;;5036210;28;20057;-63
2022/10/03 09:58:14;;;;;;;6.47;2.40;;;;;;;;;;5029362;28;20108;-63
2022/10/03 10:00:40;;;;;;;2.58;1.70;;;;;;;;;;5033858;28;20412;-63
2022/10/03 10:03:28;;;;;;;7.72;2.35;;;;;;;;;;5035563;28;20045;-63
2022/10/03 10:05:57;;;;;;;5.90;2.17;;;;;;;;;;5029709;28;20052;-63
2022/10/03 10:08:35;;;;;;;5.00;1.80;;;;;;;;;;5030312;28;20074;-63
2022/10/03 10:11:21;;;;;;;7.55;1.70;;;;;;;;;;5031374;28;20413;-63
2022/10/03 10:14:06;;;;;;;4.55;1.52;;;;;;;;;;5030712;28;20036;-63
2022/10/03 10:16:42;;;;;;;5.22;1.63;;;;;;;;;;5031253;28;20053;-63
2022/10/03 10:19:26;;;;;;;3.80;1.55;;;;;;;;;;5031644;28;20035;-63
2022/10/03 10:21:55;;;;;;;3.45;1.80;;;;;;;;;;5032506;28;20096;-63
2022/10/03 10:24:40;;;;;;;3.30;1.30;;;;;;;;;;5023531;28;20052;-63
2022/10/03 10:27:10;;;;;;;3.83;1.35;;;;;;;;;;5029529;28;20029;-63
2022/10/03 10:29:36;;;;;;;2.78;1.35;;;;;;;;;;5026248;28;20443;-63
2022/10/03 10:32:05;;;;;;;5.10;1.58;;;;;;;;;;5031601;28;20041;-63
2022/10/03 10:34:49;;;;;;;12.38;1.85;;;;;;;;;;5029686;28;20064;-63
2022/10/03 10:37:32;;;;;;;3.47;1.50;;;;;;;;;;5031428;28;20032;-63
2022/10/03 10:40:17;;;;;;;7.15;1.60;;;;;;;;;;5019722;28;20189;-63
2022/10/03 10:43:02;;;;;;;6.03;1.25;;;;;;;;;;5031279;28;20021;-63
2022/10/03 10:45:47;;;;;;;5.75;2.13;;;;;;;;;;5022299;28;20029;-63
2022/10/03 10:48:31;;;;;;;5.90;2.00;;;;;;;;;;5025148;28;20029;-63
2022/10/03 10:51:03;;;;;;;6.03;1.90;;;;;;;;;;5029067;28;20087;-63
2022/10/03 10:53:48;;;;;;;4.57;1.20;;;;;;;;;;5025960;28;20103;-63
2022/10/03 10:56:17;;;;;;;3.00;1.67;;;;;;;;;;5029174;28;20026;-63
2022/10/03 10:58:58;;;;;;;4.20;1.48;;;;;;;;;;5032937;28;20028;-63
2022/10/03 11:01:37;;;;;;;3.10;1.35;;;;;;;;;;5031546;28;20397;-63
2022/10/03 11:04:06;;;;;;;4.40;1.50;;;;;;;;;;5034363;28;20045;-63
2022/10/03 11:06:32;;;;;;;2.45;1.20;;;;;;;;;;5033632;28;20044;-63
2022/10/03 11:08:59;;;;;;;5.10;1.63;;;;;;;;;;5038322;28;20053;-63
2022/10/03 11:11:31;;;;;;;6.78;1.45;;;;;;;;;;5030317;28;20024;-63
2022/10/03 11:14:17;;;;;;;3.67;1.10;;;;;;;;;;5031698;28;20032;-63
2022/10/03 11:16:43;;;;;;;1.58;1.10;;;;;;;;;;5027593;28;20018;-63
2022/10/03 11:19:28;;;;;;;4.25;1.15;;;;;;;;;;5027728;28;20025;-64
2022/10/03 11:21:54;;;;;;;3.13;1.20;;;;;;;;;;5032742;28;20025;-63
2022/10/03 11:24:29;;;;;;;2.40;1.17;;;;;;;;;;5030242;28;20061;-63
2022/10/03 11:27:06;;;;;;;1.58;0.80;;;;;;;;;;5032955;28;20105;-63
2022/10/03 11:29:51;;;;;;;1.80;0.80;;;;;;;;;;5037563;28;20053;-63
2022/10/03 11:32:37;;;;;;;2.78;0.85;;;;;;;;;;5030602;28;20037;-63
2022/10/03 11:35:22;;;;;;;2.05;0.82;;;;;;;;;;5020159;28;20053;-63
2022/10/03 11:38:07;;;;;;;1.42;0.75;;;;;;;;;;5028809;28;20076;-63
2022/10/03 11:40:52;;;;;;;1.30;0.68;;;;;;;;;;5030874;28;20530;-63
2022/10/03 11:43:36;;;;;;;3.08;1.50;;;;;;;;;;5032969;28;20028;-63
2022/10/03 11:46:20;;;;;;;5.57;0.88;;;;;;;;;;5037777;28;20504;-63
2022/10/03 11:49:07;;;;;;;3.10;1.05;;;;;;;;;;5035971;28;20061;-63
2022/10/03 11:51:34;;;;;;;2.22;1.00;;;;;;;;;;5032512;28;20073;-63
2022/10/03 11:54:02;;;;;;;3.45;0.80;;;;;;;;;;5033988;28;20176;-63
2022/10/03 11:56:32;;;;;;;1.98;0.73;;;;;;;;;;5026461;28;20040;-63
2022/10/03 11:59:11;;;;;;;1.25;0.70;;;;;;;;;;5034624;28;20040;-63
2022/10/03 12:01:41;;;;;;;2.15;0.70;;;;;;;;;;5034097;28;20061;-63
2022/10/03 12:04:26;;;;;;;0.63;0.50;;;;;;;;;;5033678;28;20033;-63
2022/10/03 12:09:39;;;;;;;3.17;0.77;;;;;;;;;;5029394;28;20089;-63
2022/10/03 12:12:11;;;;;;;0.55;0.55;;;;;;;;;;5034966;28;20044;-63
2022/10/03 12:14:45;;;;;;;1.50;1.05;;;;;;;;;;5033324;28;20063;-63
2022/10/03 12:17:16;;;;;;;2.95;0.63;;;;;;;;;;5033619;28;20037;-63
2022/10/03 12:19:50;;;;;;;3.47;0.90;;;;;;;;;;5033552;28;20029;-63
2022/10/03 12:22:25;;;;;;;4.53;0.80;;;;;;;;;;5033486;28;20152;-63
2022/10/03 12:24:55;;;;;;;1.13;0.50;;;;;;;;;;5034453;28;20040;-63
2022/10/03 12:27:26;;;;;;;0.80;0.68;;;;;;;;;;5038273;28;20059;-63
2022/10/03 12:30:01;;;;;;;1.02;0.65;;;;;;;;;;5035664;28;20056;-63
2022/10/03 12:32:30;;;;;;;4.20;1.23;;;;;;;;;;5040640;28;20070;-63
2022/10/03 12:35:07;;;;;;;30.38;4.50;;;;;;;;;;5049664;28;20096;-63
2022/10/03 12:37:36;;;;;;;4.45;0.93;;;;;;;;;;5040130;28;20072;-63
2022/10/03 12:40:04;;;;;;;1.05;0.70;;;;;;;;;;5034623;28;20057;-63
2022/10/03 12:42:31;;;;;;;2.00;0.68;;;;;;;;;;5032973;28;20027;-63
2022/10/03 12:45:03;;;;;;;2.25;0.50;;;;;;;;;;5033545;28;20065;-63
2022/10/03 12:47:44;;;;;;;2.15;0.70;;;;;;;;;;5033634;28;20045;-63
2022/10/03 12:50:18;;;;;;;1.27;0.85;;;;;;;;;;5033251;28;20120;-63
2022/10/03 12:52:50;;;;;;;1.25;0.63;;;;;;;;;;5043319;28;20033;-63
2022/10/03 12:55:16;;;;;;;4.85;0.80;;;;;;;;;;5043056;28;20037;-63
2022/10/03 12:57:48;;;;;;;2.78;1.10;;;;;;;;;;5045808;28;20071;-63
2022/10/03 13:00:32;;;;;;;12.38;1.00;;;;;;;;;;5037309;28;20022;-63
2022/10/03 13:03:07;;;;;;;3.80;0.80;;;;;;;;;;5045397;28;20382;-63
2022/10/03 13:05:55;;;;;;;4.07;0.90;;;;;;;;;;5046149;28;20030;-63
2022/10/03 13:08:33;;;;;;;11.52;1.48;;;;;;;;;;5036671;28;20042;-63
2022/10/03 13:11:05;;;;;;;2.28;1.13;;;;;;;;;;5043827;28;20021;-63
2022/10/03 13:13:52;;;;;;;3.17;0.90;;;;;;;;;;5040799;28;20484;-63
2022/10/03 13:16:26;;;;;;;1.15;0.80;;;;;;;;;;5032731;28;20045;-63
2022/10/03 13:18:58;;;;;;;1.33;0.90;;;;;;;;;;5034728;28;20076;-63
2022/10/03 13:21:41;;;;;;;3.17;1.02;;;;;;;;;;5033790;28;20132;-63
2022/10/03 13:24:13;;;;;;;2.85;1.38;;;;;;;;;;5029851;28;20595;-63
2022/10/03 13:26:41;;;;;;;2.25;1.35;;;;;;;;;;5034042;28;20041;-63
2022/10/03 13:29:11;;;;;;;30.00;3.67;;;;;;;;;;5042230;28;20055;-63
2022/10/03 13:31:42;;;;;;;4.72;1.55;;;;;;;;;;5043226;28;20038;-63
2022/10/03 13:34:14;;;;;;;2.65;1.60;;;;;;;;;;5033331;28;20588;-63
2022/10/03 13:36:49;;;;;;;2.00;1.40;;;;;;;;;;5031194;28;20581;-63
2022/10/03 13:39:28;;;;;;;5.30;1.80;;;;;;;;;;5035470;28;20041;-63
2022/10/03 13:41:56;;;;;;;6.07;1.77;;;;;;;;;;5034534;28;20425;-63
2022/10/03 13:44:31;;;;;;;6.10;1.85;;;;;;;;;;5035565;28;20064;-63
2022/10/03 13:47:17;;;;;;;5.05;1.70;;;;;;;;;;5033559;28;20045;-63
2022/10/03 13:50:09;;;;;;;10.52;2.33;;;;;;;;;;5031404;28;20064;-63
2022/10/03 13:52:41;;;;;;;8.00;2.37;;;;;;;;;;5028971;28;20060;-63
2022/10/03 13:55:18;;;;;;;5.13;1.90;;;;;;;;;;5045608;28;20055;-63
2022/10/03 13:57:51;;;;;;;4.15;2.22;;;;;;;;;;5045747;28;20037;-63
2022/10/03 14:00:22;;;;;;;3.22;1.95;;;;;;;;;;5036525;28;20118;-63
2022/10/03 14:03:10;;;;;;;4.35;2.33;;;;;;;;;;5045670;28;20029;-63
2022/10/03 14:05:45;;;;;;;4.97;2.08;;;;;;;;;;5043715;28;20033;-63
2022/10/03 14:08:24;;;;;;;3.38;2.10;;;;;;;;;;5033620;28;20118;-63
2022/10/03 14:11:08;;;;;;;3.55;2.35;;;;;;;;;;5027418;28;20036;-63
2022/10/03 14:13:51;;;;;;;6.85;2.00;;;;;;;;;;5036070;28;20029;-63
2022/10/03 14:16:39;;;;;;;5.63;2.35;;;;;;;;;;5034401;28;20029;-63
2022/10/03 14:19:27;;;;;;;3.53;2.28;;;;;;;;;;5028566;28;20032;-63
2022/10/03 14:22:12;;;;;;;3.75;2.00;;;;;;;;;;5030316;28;20076;-63
2022/10/03 14:24:47;;;;;;;3.05;2.30;;;;;;;;;;5031124;28;20044;-63
2022/10/03 14:27:26;;;;;;;3.53;2.30;;;;;;;;;;5039657;28;20029;-63
2022/10/03 14:30:05;;;;;;;5.50;2.30;;;;;;;;;;5040950;28;20041;-63
2022/10/03 14:32:50;;;;;;;3.65;2.00;;;;;;;;;;5031122;28;20033;-63
2022/10/03 14:35:29;;;;;;;6.57;2.00;;;;;;;;;;5029062;28;20696;-63
2022/10/03 14:38:03;;;;;;;2.97;2.13;;;;;;;;;;5039501;28;20026;-64
2022/10/03 14:40:36;;;;;;;3.22;2.00;;;;;;;;;;5030640;28;20030;-64
2022/10/03 14:43:05;;;;;;;2.50;1.80;;;;;;;;;;5032493;28;20041;-64
2022/10/03 14:45:36;;;;;;;2.03;1.63;;;;;;;;;;5032247;28;20029;-64
2022/10/03 14:48:06;;;;;;;5.18;1.75;;;;;;;;;;5019930;28;20033;-63
2022/10/03 14:50:32;;;;;;;4.25;1.23;;;;;;;;;;5032195;28;20060;-63
2022/10/03 14:53:01;;;;;;;1.23;0.95;;;;;;;;;;5032398;28;20064;-63
2022/10/03 14:55:32;;;;;;;1.73;0.98;;;;;;;;;;5032634;28;20033;-63
2022/10/03 14:58:01;;;;;;;1.40;0.98;;;;;;;;;;5032451;28;20053;-63
2022/10/03 15:00:34;;;;;;;2.55;0.80;;;;;;;;;;5032295;28;20025;-63
2022/10/03 15:03:12;;;;;;;2.35;0.90;;;;;;;;;;5032215;28;20033;-63
2022/10/03 15:05:50;;;;;;;2.33;1.30;;;;;;;;;;5031845;28;20464;-63
2022/10/03 15:08:17;;;;;;;2.75;1.35;;;;;;;;;;5018493;28;20141;-63
2022/10/03 15:10:44;;;;;;;3.30;1.42;;;;;;;;;;5014064;28;20037;-63
2022/10/03 15:13:12;;;;;;;2.92;1.30;;;;;;;;;;5019328;28;20034;-63
2022/10/03 15:15:40;;;;;;;1.83;1.10;;;;;;;;;;5018584;28;20541;-63
2022/10/03 15:18:07;;;;;;;1.90;1.00;;;;;;;;;;5023454;28;20080;-63
2022/10/03 15:20:38;;;;;;;2.80;0.93;;;;;;;;;;5020794;28;20017;-63
2022/10/03 15:23:10;;;;;;;1.00;0.90;;;;;;;;;;5020768;28;20666;-63
2022/10/03 15:25:40;;;;;;;2.20;0.77;;;;;;;;;;5021949;28;20038;-63
2022/10/03 15:28:19;;;;;;;1.40;0.90;;;;;;;;;;5023911;28;20497;-63
2022/10/03 15:30:46;;;;;;;1.80;1.00;;;;;;;;;;5021781;28;20117;-63
2022/10/03 15:33:29;;;;;;;5.43;1.00;;;;;;;;;;5027905;28;20017;-63
2022/10/03 15:35:59;;;;;;;1.73;0.68;;;;;;;;;;5020711;28;20029;-63
2022/10/03 15:38:27;;;;;;;1.35;0.85;;;;;;;;;;5019933;28;20033;-63
2022/10/03 15:41:08;;;;;;;1.70;1.02;;;;;;;;;;5023957;28;20373;-63
2022/10/03 15:43:37;;;;;;;2.90;1.80;;;;;;;;;;5020262;28;20033;-63
2022/10/03 15:46:06;;;;;;;5.35;1.73;;;;;;;;;;5024658;28;20121;-63